createdAt,value
2019-05-26T00:00:25.136Z,14.50
2019-05-26T00:05:30.504Z,14.50
2019-05-26T00:10:35.999Z,14.60
2019-05-26T00:15:42.551Z,14.50
2019-05-26T00:20:47.927Z,14.30
2019-05-26T00:25:53.268Z,14.30
2019-05-26T00:31:00.687Z,14.30
2019-05-26T00:36:06.160Z,14.20
2019-05-26T00:41:11.552Z,14.10
2019-05-26T00:46:16.876Z,14.20
2019-05-26T00:51:22.431Z,14.10
2019-05-26T00:56:27.934Z,14.10
2019-05-26T01:01:33.239Z,14.20
2019-05-26T01:06:38.519Z,14.00
2019-05-26T01:11:43.838Z,13.90
2019-05-26T01:16:49.283Z,13.90
2019-05-26T01:21:54.599Z,13.80
2019-05-26T01:27:00.083Z,13.70
2019-05-26T01:32:05.475Z,13.60
2019-05-26T01:37:10.959Z,13.40
2019-05-26T01:42:16.260Z,13.30
2019-05-26T01:47:21.747Z,13.40
2019-05-26T01:52:27.106Z,13.30
2019-05-26T01:57:33.752Z,13.20
2019-05-26T02:02:39.099Z,13.20
2019-05-26T02:07:44.340Z,13.20
2019-05-26T02:12:49.832Z,13.20
2019-05-26T02:17:55.440Z,13.20
2019-05-26T02:23:00.917Z,13.20
2019-05-26T02:28:06.340Z,13.30
2019-05-26T02:33:11.684Z,13.40
2019-05-26T02:38:17.020Z,13.40
2019-05-26T02:43:22.405Z,13.30
2019-05-26T02:48:27.784Z,13.20
2019-05-26T02:53:33.136Z,13.10
2019-05-26T02:58:38.477Z,13.10
2019-05-26T03:03:43.764Z,13.00
2019-05-26T03:08:50.990Z,13.00
2019-05-26T03:13:58.192Z,13.00
2019-05-26T03:19:05.059Z,13.00
2019-05-26T03:24:11.975Z,13.10
2019-05-26T03:29:17.294Z,13.20
2019-05-26T03:34:22.635Z,13.10
2019-05-26T03:39:43.207Z,13.10
2019-05-26T03:44:34.891Z,13.10
2019-05-26T03:49:40.223Z,13.10
2019-05-26T03:54:45.530Z,13.00
2019-05-26T03:59:50.861Z,13.10
2019-05-26T04:04:56.298Z,13.00
2019-05-26T04:10:05.584Z,13.00
2019-05-26T04:15:08.641Z,13.00
2019-05-26T04:20:14.059Z,13.00
2019-05-26T04:25:19.394Z,13.10
2019-05-26T04:30:24.682Z,13.10
2019-05-26T04:35:29.999Z,13.10
2019-05-26T04:40:35.637Z,13.10
2019-05-26T04:45:40.951Z,13.20
2019-05-26T04:50:46.296Z,13.30
2019-05-26T04:55:51.636Z,13.50
2019-05-26T05:00:56.939Z,13.40
2019-05-26T05:06:02.249Z,13.40
2019-05-26T05:11:07.558Z,13.40
2019-05-26T05:16:12.925Z,13.40
2019-05-26T05:21:18.261Z,13.40
2019-05-26T05:26:23.582Z,13.60
2019-05-26T05:31:28.914Z,13.60
2019-05-26T05:36:34.275Z,13.70
2019-05-26T05:41:39.578Z,13.80
2019-05-26T05:46:44.888Z,14.10
2019-05-26T05:51:50.200Z,14.20
2019-05-26T05:56:55.913Z,14.20
2019-05-26T06:02:01.311Z,14.30
2019-05-26T06:07:06.605Z,14.20
2019-05-26T06:12:11.942Z,14.20
2019-05-26T06:17:17.223Z,14.50
2019-05-26T06:22:22.621Z,14.30
2019-05-26T06:27:27.940Z,14.40
2019-05-26T06:32:33.453Z,14.70
2019-05-26T06:37:38.785Z,14.60
2019-05-26T06:42:44.110Z,14.80
2019-05-26T06:47:49.672Z,14.60
2019-05-26T06:52:55.067Z,14.70
2019-05-26T06:58:00.716Z,14.60
2019-05-26T07:03:07.064Z,14.90
2019-05-26T07:08:13.012Z,15.40
2019-05-26T07:13:18.539Z,15.30
2019-05-26T07:18:24.202Z,15.70
2019-05-26T07:23:29.799Z,15.40
2019-05-26T07:28:35.115Z,15.80
2019-05-26T07:33:40.876Z,16.10
2019-05-26T07:38:46.553Z,17.40
2019-05-26T07:43:52.258Z,17.60
2019-05-26T07:48:57.593Z,17.50
2019-05-26T07:54:03.681Z,17.60
2019-05-26T07:59:09.495Z,18.70
2019-05-26T08:04:15.138Z,17.90
2019-05-26T08:09:21.133Z,18.50
2019-05-26T08:14:26.482Z,18.20
2019-05-26T08:19:32.391Z,18.20
2019-05-26T08:24:37.699Z,18.30
2019-05-26T08:29:43.609Z,18.00
2019-05-26T08:34:49.171Z,18.80
2019-05-26T08:39:56.395Z,20.30
2019-05-26T08:45:02.108Z,19.30
2019-05-26T08:50:07.692Z,19.00
2019-05-26T08:55:13.321Z,19.00
2019-05-26T09:00:19.454Z,19.70
2019-05-26T09:05:25.066Z,19.80
2019-05-26T09:10:31.614Z,20.10
2019-05-26T09:15:37.131Z,20.40
2019-05-26T09:20:42.436Z,20.70
2019-05-26T09:25:48.071Z,20.80
2019-05-26T09:30:53.469Z,22.60
2019-05-26T09:35:58.819Z,21.30
2019-05-26T09:41:04.436Z,21.50
2019-05-26T09:46:09.918Z,22.60
2019-05-26T09:51:15.543Z,22.20
2019-05-26T09:56:22.052Z,20.90
2019-05-26T10:01:27.393Z,21.80
2019-05-26T10:06:32.800Z,23.10
2019-05-26T10:11:38.397Z,23.90
2019-05-26T10:16:43.784Z,24.90
2019-05-26T10:21:49.257Z,24.50
2019-05-26T10:26:54.700Z,24.40
2019-05-26T10:32:01.051Z,21.90
2019-05-26T10:37:06.422Z,21.70
2019-05-26T10:42:11.783Z,22.00
2019-05-26T10:47:17.175Z,23.00
2019-05-26T10:52:22.515Z,22.90
2019-05-26T10:57:28.927Z,23.60
2019-05-26T11:02:34.258Z,23.40
2019-05-26T11:07:39.613Z,23.00
2019-05-26T11:12:44.945Z,24.50
2019-05-26T11:17:50.387Z,25.10
2019-05-26T11:22:55.806Z,25.10
2019-05-26T11:28:01.123Z,25.10
2019-05-26T11:33:06.454Z,26.00
2019-05-26T11:38:11.790Z,25.20
2019-05-26T11:43:17.639Z,25.50
2019-05-26T11:48:23.103Z,26.00
2019-05-26T11:53:28.443Z,26.30
2019-05-26T11:58:33.744Z,25.80
2019-05-26T12:03:39.160Z,25.80
2019-05-26T12:08:44.487Z,25.20
2019-05-26T12:13:49.804Z,25.80
2019-05-26T12:18:55.108Z,25.40
2019-05-26T12:24:00.479Z,23.30
2019-05-26T12:29:05.902Z,22.40
2019-05-26T12:34:11.220Z,22.70
2019-05-26T12:39:16.520Z,23.00
2019-05-26T12:44:21.911Z,22.60
2019-05-26T12:49:28.021Z,22.70
2019-05-26T12:54:33.459Z,22.40
2019-05-26T12:59:38.802Z,22.30
2019-05-26T13:04:44.182Z,22.10
2019-05-26T13:09:49.486Z,22.10
2019-05-26T13:15:05.361Z,22.50
2019-05-26T13:20:01.841Z,22.90
2019-05-26T13:25:07.431Z,22.50
2019-05-26T13:30:13.617Z,22.60
2019-05-26T13:35:19.627Z,23.20
2019-05-26T13:40:25.089Z,23.30
2019-05-26T13:45:33.735Z,23.10
2019-05-26T13:50:37.464Z,22.80
2019-05-26T13:55:42.886Z,23.50
2019-05-26T14:00:48.437Z,23.30
2019-05-26T14:05:53.821Z,23.30
2019-05-26T14:10:59.635Z,24.40
2019-05-26T14:16:05.190Z,22.80
2019-05-26T14:21:10.568Z,23.10
2019-05-26T14:26:15.888Z,23.50
2019-05-26T14:31:21.294Z,23.20
2019-05-26T14:36:26.593Z,22.90
2019-05-26T14:41:31.941Z,22.90
2019-05-26T14:46:37.389Z,23.10
2019-05-26T14:51:42.839Z,22.80
2019-05-26T14:56:48.212Z,22.50
2019-05-26T15:01:53.565Z,23.10
2019-05-26T15:06:58.997Z,25.40
2019-05-26T15:12:04.337Z,23.50
2019-05-26T15:17:09.668Z,23.30
2019-05-26T15:22:15.128Z,24.40
2019-05-26T15:27:20.514Z,26.10
2019-05-26T15:32:25.835Z,26.80
2019-05-26T15:37:31.215Z,26.90
2019-05-26T15:42:36.574Z,27.50
2019-05-26T15:47:42.019Z,26.30
2019-05-26T15:52:47.399Z,24.50
2019-05-26T15:57:52.813Z,24.00
2019-05-26T16:02:58.135Z,24.00
2019-05-26T16:08:03.504Z,23.20
2019-05-26T16:13:08.876Z,23.50
2019-05-26T16:18:14.248Z,23.20
2019-05-26T16:23:20.115Z,23.30
2019-05-26T16:28:26.474Z,23.20
2019-05-26T16:33:32.817Z,23.50
2019-05-26T16:38:38.207Z,23.20
2019-05-26T16:43:43.506Z,22.80
2019-05-26T16:48:49.954Z,22.50
2019-05-26T16:53:55.279Z,22.10
2019-05-26T16:59:00.616Z,22.00
2019-05-26T17:04:05.911Z,22.00
2019-05-26T17:09:11.292Z,22.10
2019-05-26T17:14:16.670Z,22.10
2019-05-26T17:19:22.054Z,22.00
2019-05-26T17:24:27.438Z,21.80
2019-05-26T17:29:32.840Z,22.00
2019-05-26T17:34:38.217Z,22.10
2019-05-26T17:39:43.515Z,22.00
2019-05-26T17:44:48.858Z,21.90
2019-05-26T17:49:54.149Z,21.70
2019-05-26T17:55:01.507Z,21.60
2019-05-26T18:00:08.804Z,21.40
2019-05-26T18:05:14.984Z,21.40
2019-05-26T18:10:20.820Z,21.30
2019-05-26T18:15:26.441Z,21.20
2019-05-26T18:20:31.735Z,21.00
2019-05-26T18:25:37.148Z,20.90
2019-05-26T18:30:42.864Z,20.80
2019-05-26T18:35:48.307Z,20.70
2019-05-26T18:40:54.097Z,20.40
2019-05-26T18:45:59.595Z,20.30
2019-05-26T18:51:05.044Z,20.00
2019-05-26T18:56:10.428Z,19.80
2019-05-26T19:01:15.840Z,19.60
2019-05-26T19:06:21.228Z,19.50
2019-05-26T19:11:26.641Z,19.50
2019-05-26T19:16:32.473Z,19.30
2019-05-26T19:21:37.930Z,19.20
2019-05-26T19:26:43.364Z,19.10
2019-05-26T19:31:48.762Z,18.80
2019-05-26T19:36:54.223Z,18.60
2019-05-26T19:41:59.562Z,18.50
2019-05-26T19:47:04.987Z,18.30
2019-05-26T19:52:10.376Z,18.30
2019-05-26T19:57:15.746Z,18.30
2019-05-26T20:02:21.211Z,18.10
2019-05-26T20:07:26.627Z,17.90
2019-05-26T20:12:32.026Z,17.70
2019-05-26T20:17:37.476Z,17.60
2019-05-26T20:22:42.953Z,17.50
2019-05-26T20:27:48.346Z,17.40
2019-05-26T20:32:53.861Z,17.40
2019-05-26T20:37:59.250Z,17.40
2019-05-26T20:43:04.641Z,17.30
2019-05-26T20:48:10.437Z,17.20
2019-05-26T20:53:19.496Z,17.20
2019-05-26T20:58:24.851Z,17.10
2019-05-26T21:03:30.378Z,17.00
2019-05-26T21:08:35.765Z,17.00
2019-05-26T21:13:41.091Z,16.90
2019-05-26T21:18:46.500Z,16.80
2019-05-26T21:23:51.861Z,16.70
2019-05-26T21:28:57.358Z,16.70
2019-05-26T21:34:02.823Z,16.60
2019-05-26T21:39:08.473Z,16.60
2019-05-26T21:44:14.028Z,16.50
2019-05-26T21:49:19.930Z,16.40
2019-05-26T21:54:25.262Z,16.40
2019-05-26T21:59:30.577Z,16.20
2019-05-26T22:04:35.956Z,16.10
2019-05-26T22:09:41.263Z,16.10
2019-05-26T22:14:46.845Z,16.00
2019-05-26T22:19:52.164Z,15.90
2019-05-26T22:24:57.557Z,15.70
2019-05-26T22:30:04.371Z,15.60
2019-05-26T22:35:10.031Z,15.60
2019-05-26T22:40:15.839Z,15.60
2019-05-26T22:45:21.175Z,15.60
2019-05-26T22:50:26.523Z,15.60
2019-05-26T22:55:31.850Z,15.50
2019-05-26T23:00:37.138Z,14.90
2019-05-26T23:05:42.436Z,14.80
2019-05-26T23:10:47.763Z,14.80
2019-05-26T23:15:53.036Z,14.80
2019-05-26T23:20:58.339Z,14.80
2019-05-26T23:26:03.657Z,14.90
2019-05-26T23:31:08.982Z,14.90
2019-05-26T23:36:14.312Z,14.70
2019-05-26T23:41:19.610Z,14.50
2019-05-26T23:46:24.953Z,14.40
2019-05-26T23:51:30.398Z,14.20
2019-05-26T23:56:35.647Z,14.20
